Time,TemperatureF,DewpointF,PressureIn,WindDirection,WindDirectionDegrees,WindSpeedMPH,WindSpeedGustMPH,Humidity,HourlyPrecipIn,Conditions,Clouds,dailyrainin,SoftwareType,DateUTC
2013-09-19 00:01:00,59.9,59.3,30.20,SW,225,0.0,0.0,98,0.00,,---,0.00,VWS V14.00,2013-09-19 04:01:00,
2013-09-19 00:02:00,59.9,59.3,30.19,SW,225,0.0,0.0,98,0.00,,---,0.00,VWS V14.00,2013-09-19 04:02:00,
2013-09-19 00:07:00,59.9,59.3,30.20,SW,225,0.0,0.0,98,0.00,,---,0.00,VWS V14.00,2013-09-19 04:07:00,
2013-09-19 00:09:00,60.0,59.4,30.20,SW,225,0.0,0.0,98,0.00,,---,0.00,VWS V14.00,2013-09-19 04:09:00,
2013-09-19 00:15:00,60.0,59.4,30.20,SW,225,0.0,0.0,98,0.00,,---,0.00,VWS V14.00,2013-09-19 04:15:00,
2013-09-19 00:20:00,60.0,59.4,30.20,SW,225,0.0,0.0,98,0.00,,---,0.00,VWS V14.00,2013-09-19 04:20:00,
2013-09-19 00:25:00,60.0,59.4,30.19,SW,225,0.0,0.0,98,0.00,,---,0.00,VWS V14.00,2013-09-19 04:25:00,
2013-09-19 00:30:00,60.0,59.4,30.19,SW,225,0.0,0.0,98,0.00,,---,0.00,VWS V14.00,2013-09-19 04:30:00,
2013-09-19 00:34:00,60.0,59.4,30.19,SW,225,0.0,0.0,98,0.00,,---,0.00,VWS V14.00,2013-09-19 04:34:00,
2013-09-19 00:40:00,59.9,59.3,30.19,SW,225,0.0,0.0,98,0.00,,---,0.00,VWS V14.00,2013-09-19 04:40:00,
2013-09-19 00:45:00,59.9,59.3,30.20,SW,225,0.0,0.0,98,0.00,,---,0.00,VWS V14.00,2013-09-19 04:45:00,
2013-09-19 00:50:00,59.9,59.3,30.19,SW,225,0.0,0.0,98,0.00,,---,0.00,VWS V14.00,2013-09-19 04:50:00,
2013-09-19 00:55:00,60.0,59.4,30.19,SW,225,0.0,0.0,98,0.00,,---,0.00,VWS V14.00,2013-09-19 04:55:00,
2013-09-19 01:00:00,60.0,59.4,30.19,SW,225,0.0,0.0,98,0.00,,---,0.00,VWS V14.00,2013-09-19 05:00:00,
2013-09-19 01:05:00,60.0,59.4,30.19,SW,225,0.0,0.0,98,0.00,,---,0.00,VWS V14.00,2013-09-19 05:05:00,
2013-09-19 01:10:00,60.0,59.4,30.19,SW,225,0.0,0.0,98,0.00,,---,0.00,VWS V14.00,2013-09-19 05:10:00,
2013-09-19 01:15:00,60.0,59.4,30.19,SW,225,0.0,0.0,98,0.00,,---,0.00,VWS V14.00,2013-09-19 05:15:00,
2013-09-19 01:20:00,60.0,59.4,30.19,SW,225,0.0,0.0,98,0.00,,---,0.00,VWS V14.00,2013-09-19 05:20:00,
2013-09-19 01:25:00,60.0,59.4,30.18,SW,225,0.0,0.0,98,0.00,,---,0.00,VWS V14.00,2013-09-19 05:25:00,
2013-09-19 01:30:00,60.0,59.4,30.18,SW,225,0.0,0.0,98,0.00,,---,0.00,VWS V14.00,2013-09-19 05:30:00,
2013-09-19 01:35:00,60.0,59.4,30.18,SW,225,0.0,0.0,98,0.00,,---,0.00,VWS V14.00,2013-09-19 05:35:00,
2013-09-19 01:40:00,60.0,59.7,30.18,SW,225,0.0,0.0,99,0.00,,---,0.00,VWS V14.00,2013-09-19 05:40:00,
2013-09-19 01:45:00,60.0,59.7,30.18,SW,225,0.0,0.0,99,0.00,,---,0.00,VWS V14.00,2013-09-19 05:45:00,
2013-09-19 01:50:00,60.0,59.7,30.18,SW,225,0.0,0.0,99,0.00,,---,0.00,VWS V14.00,2013-09-19 05:50:00,
2013-09-19 01:55:00,60.0,59.7,30.18,SW,225,0.0,0.0,99,0.00,,---,0.00,VWS V14.00,2013-09-19 05:55:00,
2013-09-19 02:00:00,60.0,59.7,30.18,SW,225,0.0,0.0,99,0.00,,---,0.00,VWS V14.00,2013-09-19 06:00:00,
2013-09-19 02:05:00,60.0,59.7,30.18,SW,225,0.0,0.0,99,0.00,,---,0.00,VWS V14.00,2013-09-19 06:05:00,
2013-09-19 02:10:00,60.0,59.7,30.18,SW,225,0.0,0.0,99,0.00,,---,0.00,VWS V14.00,2013-09-19 06:10:00,
2013-09-19 02:15:00,60.0,59.7,30.18,SW,225,0.0,0.0,99,0.00,,---,0.00,VWS V14.00,2013-09-19 06:15:00,
2013-09-19 02:20:00,60.0,59.7,30.18,SW,225,0.0,0.0,99,0.00,,---,0.00,VWS V14.00,2013-09-19 06:20:00,
2013-09-19 02:25:00,60.0,59.7,30.18,SW,225,0.0,0.0,99,0.00,,---,0.00,VWS V14.00,2013-09-19 06:25:00,
2013-09-19 02:30:00,59.7,59.4,30.18,SW,225,0.0,0.0,99,0.00,,---,0.00,VWS V14.00,2013-09-19 06:30:00,
2013-09-19 02:35:00,59.7,59.1,30.18,SW,225,0.0,0.0,98,0.00,,---,0.00,VWS V14.00,2013-09-19 06:35:00,
2013-09-19 02:40:00,59.5,58.9,30.17,SW,225,0.0,0.0,98,0.00,,---,0.00,VWS V14.00,2013-09-19 06:40:00,
2013-09-19 02:45:00,59.3,59.0,30.17,SW,225,0.0,0.0,99,0.00,,---,0.00,VWS V14.00,2013-09-19 06:45:00,
2013-09-19 02:50:00,59.1,58.8,30.17,SW,225,0.0,0.0,99,0.00,,---,0.00,VWS V14.00,2013-09-19 06:50:00,
2013-09-19 02:55:00,58.8,58.5,30.17,SW,225,0.0,0.0,99,0.00,,---,0.00,VWS V14.00,2013-09-19 06:55:00,
2013-09-19 03:00:00,58.8,58.5,30.17,SW,225,0.0,0.0,99,0.00,,---,0.00,VWS V14.00,2013-09-19 07:00:00,
2013-09-19 03:05:00,58.8,58.5,30.17,SW,225,0.0,0.0,99,0.00,,---,0.00,VWS V14.00,2013-09-19 07:05:00,
2013-09-19 03:10:00,58.8,58.5,30.17,SW,225,0.0,0.0,99,0.00,,---,0.00,VWS V14.00,2013-09-19 07:10:00,
2013-09-19 03:15:00,58.8,58.5,30.17,SW,225,0.0,0.0,99,0.00,,---,0.00,VWS V14.00,2013-09-19 07:15:00,
2013-09-19 03:20:00,58.8,58.5,30.17,SW,225,0.0,0.0,99,0.00,,---,0.00,VWS V14.00,2013-09-19 07:20:00,
2013-09-19 03:25:00,58.6,58.3,30.16,SW,225,0.0,0.0,99,0.00,,---,0.00,VWS V14.00,2013-09-19 07:25:00,
2013-09-19 03:30:00,58.4,58.1,30.16,SW,225,0.0,0.0,99,0.00,,---,0.00,VWS V14.00,2013-09-19 07:30:00,
2013-09-19 03:35:00,58.2,57.9,30.16,SW,225,0.0,0.0,99,0.00,,---,0.00,VWS V14.00,2013-09-19 07:35:00,
2013-09-19 03:40:00,58.2,57.9,30.16,SW,225,0.0,0.0,99,0.00,,---,0.00,VWS V14.00,2013-09-19 07:40:00,
2013-09-19 03:45:00,58.1,57.8,30.16,SW,225,0.0,0.0,99,0.00,,---,0.00,VWS V14.00,2013-09-19 07:45:00,
2013-09-19 03:50:00,57.9,57.6,30.16,SW,225,0.0,0.0,99,0.00,,---,0.00,VWS V14.00,2013-09-19 07:50:00,
2013-09-19 03:55:00,57.9,57.6,30.16,SW,225,0.0,0.0,99,0.00,,---,0.00,VWS V14.00,2013-09-19 07:55:00,
2013-09-19 04:00:00,57.9,57.6,30.16,SW,225,0.0,0.0,99,0.00,,---,0.00,VWS V14.00,2013-09-19 08:00:00,
2013-09-19 04:06:00,57.7,57.4,30.16,SW,225,0.0,0.0,99,0.00,,---,0.00,VWS V14.00,2013-09-19 08:06:00,
2013-09-19 04:11:00,57.5,57.2,30.16,SW,225,0.0,0.0,99,0.00,,---,0.00,VWS V14.00,2013-09-19 08:11:00,
2013-09-19 04:16:00,57.3,57.0,30.16,SW,225,0.0,0.0,99,0.00,,---,0.00,VWS V14.00,2013-09-19 08:16:00,
2013-09-19 04:21:00,57.3,57.3,30.16,SW,225,0.0,0.0,100,0.00,,---,0.00,VWS V14.00,2013-09-19 08:21:00,
2013-09-19 04:26:00,57.3,57.3,30.16,SW,225,0.0,0.0,100,0.00,,---,0.00,VWS V14.00,2013-09-19 08:26:00,
2013-09-19 04:31:00,57.0,57.0,30.16,SW,225,0.0,0.0,100,0.00,,---,0.00,VWS V14.00,2013-09-19 08:31:00,
2013-09-19 04:36:00,57.0,57.0,30.16,SW,225,0.0,0.0,100,0.00,,---,0.00,VWS V14.00,2013-09-19 08:36:00,
2013-09-19 04:41:00,57.0,57.0,30.16,SW,225,0.0,0.0,100,0.00,,---,0.00,VWS V14.00,2013-09-19 08:41:00,
2013-09-19 04:46:00,57.0,57.0,30.16,SW,225,0.0,0.0,100,0.00,,---,0.00,VWS V14.00,2013-09-19 08:46:00,
2013-09-19 04:51:00,57.0,57.0,30.16,SW,225,0.0,0.0,100,0.00,,---,0.00,VWS V14.00,2013-09-19 08:51:00,
2013-09-19 04:56:00,57.0,57.0,30.16,SW,225,0.0,0.0,100,0.00,,---,0.00,VWS V14.00,2013-09-19 08:56:00,
2013-09-19 05:01:00,57.3,57.3,30.16,SW,225,0.0,0.0,100,0.00,,---,0.00,VWS V14.00,2013-09-19 09:01:00,
2013-09-19 05:06:00,57.3,57.3,30.16,SW,225,0.0,0.0,100,0.00,,---,0.00,VWS V14.00,2013-09-19 09:06:00,
2013-09-19 05:11:00,57.3,57.3,30.16,SW,225,0.0,0.0,100,0.00,,---,0.00,VWS V14.00,2013-09-19 09:11:00,
2013-09-19 05:16:00,57.5,57.5,30.16,SW,225,0.0,0.0,100,0.00,,---,0.00,VWS V14.00,2013-09-19 09:16:00,
2013-09-19 05:21:00,57.5,57.5,30.16,SW,225,0.0,0.0,100,0.00,,---,0.00,VWS V14.00,2013-09-19 09:21:00,
2013-09-19 05:26:00,57.7,57.7,30.17,SW,225,0.0,0.0,100,0.00,,---,0.00,VWS V14.00,2013-09-19 09:26:00,
2013-09-19 05:31:00,57.9,57.9,30.16,SW,225,0.0,0.0,100,0.00,,---,0.00,VWS V14.00,2013-09-19 09:31:00,
2013-09-19 05:36:00,57.9,57.9,30.16,SW,225,0.0,0.0,100,0.00,,---,0.00,VWS V14.00,2013-09-19 09:36:00,
2013-09-19 05:41:00,57.9,57.9,30.17,SW,225,0.0,0.0,100,0.00,,---,0.00,VWS V14.00,2013-09-19 09:41:00,
2013-09-19 05:46:00,57.9,57.9,30.16,SW,225,0.0,0.0,100,0.00,,---,0.00,VWS V14.00,2013-09-19 09:46:00,
2013-09-19 05:51:00,58.1,58.1,30.16,SW,225,0.0,0.0,100,0.00,,---,0.00,VWS V14.00,2013-09-19 09:51:00,
2013-09-19 05:56:00,58.1,58.1,30.16,SW,225,0.0,0.0,100,0.00,,---,0.00,VWS V14.00,2013-09-19 09:56:00,
2013-09-19 06:02:00,58.2,58.2,30.17,SW,225,0.0,0.0,100,0.00,,---,0.00,VWS V14.00,2013-09-19 10:02:00,
2013-09-19 06:07:00,58.2,58.2,30.16,SW,225,0.0,0.0,100,0.00,,---,0.00,VWS V14.00,2013-09-19 10:07:00,
2013-09-19 06:12:00,58.2,58.2,30.16,SW,225,0.0,0.0,100,0.00,,---,0.00,VWS V14.00,2013-09-19 10:12:00,
2013-09-19 06:17:00,58.2,58.2,30.16,SW,225,0.0,0.0,100,0.00,,---,0.00,VWS V14.00,2013-09-19 10:17:00,
2013-09-19 06:22:00,57.9,57.9,30.16,SW,225,0.0,0.0,100,0.00,,---,0.00,VWS V14.00,2013-09-19 10:22:00,
2013-09-19 06:27:00,57.9,57.9,30.16,SW,225,0.0,0.0,100,0.00,,---,0.00,VWS V14.00,2013-09-19 10:27:00,
2013-09-19 06:32:00,57.7,57.7,30.16,SW,225,0.0,0.0,100,0.00,,---,0.00,VWS V14.00,2013-09-19 10:32:00,
2013-09-19 06:37:00,57.7,57.7,30.16,SW,225,0.0,0.0,100,0.00,,---,0.00,VWS V14.00,2013-09-19 10:37:00,
2013-09-19 06:42:00,57.5,57.5,30.16,SW,225,0.0,0.0,100,0.00,,---,0.00,VWS V14.00,2013-09-19 10:42:00,
2013-09-19 06:47:00,57.5,57.5,30.17,SW,225,0.0,0.0,100,0.00,,---,0.00,VWS V14.00,2013-09-19 10:47:00,
2013-09-19 06:52:00,57.7,57.7,30.17,SW,225,0.0,0.0,100,0.00,,---,0.00,VWS V14.00,2013-09-19 10:52:00,
2013-09-19 06:57:00,57.7,57.7,30.16,SW,225,0.0,0.0,100,0.00,,---,0.00,VWS V14.00,2013-09-19 10:57:00,
2013-09-19 07:02:00,57.7,57.7,30.16,SW,225,0.0,0.0,100,0.00,,---,0.00,VWS V14.00,2013-09-19 11:02:00,
2013-09-19 07:07:00,57.7,57.7,30.16,SW,225,0.0,0.0,100,0.00,,---,0.00,VWS V14.00,2013-09-19 11:07:00,
2013-09-19 07:12:00,57.9,57.9,30.16,SW,225,0.0,0.0,100,0.00,,---,0.00,VWS V14.00,2013-09-19 11:12:00,
2013-09-19 07:17:00,57.9,57.9,30.17,SW,225,0.0,0.0,100,0.00,,---,0.00,VWS V14.00,2013-09-19 11:17:00,
2013-09-19 07:22:00,58.1,58.1,30.16,SW,225,0.0,0.0,100,0.00,,---,0.00,VWS V14.00,2013-09-19 11:22:00,
2013-09-19 07:27:00,58.1,58.1,30.16,SW,225,0.0,0.0,100,0.00,,---,0.00,VWS V14.00,2013-09-19 11:27:00,
2013-09-19 07:32:00,58.2,58.2,30.16,SW,225,0.0,0.0,100,0.00,,---,0.00,VWS V14.00,2013-09-19 11:32:00,
2013-09-19 07:37:00,58.4,58.4,30.17,SW,225,0.0,0.0,100,0.00,,---,0.00,VWS V14.00,2013-09-19 11:37:00,
2013-09-19 07:42:00,58.6,58.6,30.17,SW,225,0.0,0.0,100,0.00,,---,0.00,VWS V14.00,2013-09-19 11:42:00,
2013-09-19 07:47:00,58.8,58.8,30.17,SW,225,0.0,0.0,100,0.00,,---,0.00,VWS V14.00,2013-09-19 11:47:00,
2013-09-19 07:52:00,58.8,58.8,30.17,SW,225,0.0,0.0,100,0.00,,---,0.00,VWS V14.00,2013-09-19 11:52:00,
2013-09-19 07:57:00,58.8,58.8,30.17,SW,225,0.0,0.0,100,0.00,,---,0.00,VWS V14.00,2013-09-19 11:57:00,
2013-09-19 08:02:00,58.8,58.8,30.17,SW,225,0.0,0.0,100,0.00,,---,0.00,VWS V14.00,2013-09-19 12:02:00,
2013-09-19 08:07:00,59.0,59.0,30.17,SW,225,0.0,0.0,100,0.00,,---,0.00,VWS V14.00,2013-09-19 12:07:00,
2013-09-19 08:12:00,59.1,59.1,30.17,SW,225,0.0,0.0,100,0.00,,---,0.00,VWS V14.00,2013-09-19 12:12:00,
2013-09-19 08:17:00,59.3,59.3,30.18,SW,225,0.0,0.0,100,0.00,,---,0.00,VWS V14.00,2013-09-19 12:17:00,
2013-09-19 08:22:00,59.5,59.5,30.18,SW,225,0.0,0.0,100,0.00,,---,0.00,VWS V14.00,2013-09-19 12:22:00,
2013-09-19 08:27:00,59.7,59.7,30.18,SW,225,0.0,0.0,100,0.00,,---,0.00,VWS V14.00,2013-09-19 12:27:00,
2013-09-19 08:32:00,60.2,60.2,30.18,SW,225,0.0,0.0,100,0.00,,---,0.00,VWS V14.00,2013-09-19 12:32:00,
2013-09-19 08:37:00,60.6,60.6,30.18,SW,225,0.0,0.0,100,0.00,,---,0.00,VWS V14.00,2013-09-19 12:37:00,
2013-09-19 08:42:00,60.9,60.9,30.18,SW,225,0.0,0.0,100,0.00,,---,0.00,VWS V14.00,2013-09-19 12:42:00,
2013-09-19 08:47:00,61.5,61.5,30.18,SW,225,0.0,0.0,100,0.00,,---,0.00,VWS V14.00,2013-09-19 12:47:00,
2013-09-19 08:52:00,61.7,61.7,30.18,SW,225,0.0,0.0,100,0.00,,---,0.00,VWS V14.00,2013-09-19 12:52:00,
2013-09-19 08:57:00,62.4,62.4,30.18,SW,225,0.0,0.0,100,0.00,,---,0.00,VWS V14.00,2013-09-19 12:57:00,
2013-09-19 09:02:00,63.3,63.3,30.18,SW,225,0.0,0.0,100,0.00,,---,0.00,VWS V14.00,2013-09-19 13:02:00,
2013-09-19 09:07:00,64.0,64.0,30.18,SW,225,0.0,0.0,100,0.00,,---,0.00,VWS V14.00,2013-09-19 13:07:00,
2013-09-19 09:12:00,64.2,64.2,30.18,SW,225,0.0,0.0,100,0.00,,---,0.00,VWS V14.00,2013-09-19 13:12:00,
2013-09-19 09:17:00,65.1,65.1,30.18,WSW,248,0.0,0.0,100,0.00,,---,0.00,VWS V14.00,2013-09-19 13:17:00,
2013-09-19 09:22:00,65.8,65.5,30.18,WSW,248,0.0,0.0,99,0.00,,---,0.00,VWS V14.00,2013-09-19 13:22:00,
2013-09-19 09:27:00,66.3,65.7,30.18,WSW,248,0.0,0.0,98,0.00,,---,0.00,VWS V14.00,2013-09-19 13:27:00,
2013-09-19 09:32:00,66.9,66.0,30.18,WNW,292,0.0,0.0,97,0.00,,---,0.00,VWS V14.00,2013-09-19 13:32:00,
2013-09-19 09:37:00,67.2,66.0,30.18,WNW,292,0.0,0.0,96,0.00,,---,0.00,VWS V14.00,2013-09-19 13:37:00,
2013-09-19 09:42:00,67.2,65.7,30.18,WNW,292,0.0,0.0,95,0.00,,---,0.00,VWS V14.00,2013-09-19 13:42:00,
2013-09-19 09:47:00,67.8,66.0,30.18,WNW,292,0.0,0.0,94,0.00,,---,0.00,VWS V14.00,2013-09-19 13:47:00,
2013-09-19 09:52:00,68.3,66.5,30.18,WNW,292,0.0,0.0,94,0.00,,---,0.00,VWS V14.00,2013-09-19 13:52:00,
2013-09-19 09:57:00,68.7,66.6,30.18,WNW,292,0.0,0.0,93,0.00,,---,0.00,VWS V14.00,2013-09-19 13:57:00,
2013-09-19 10:02:00,69.2,67.1,30.19,WNW,292,0.0,0.0,93,0.00,,---,0.00,VWS V14.00,2013-09-19 14:02:00,
2013-09-19 10:07:00,69.8,67.1,30.18,WNW,292,0.0,0.0,91,0.00,,---,0.00,VWS V14.00,2013-09-19 14:07:00,
2013-09-19 10:12:00,70.1,67.0,30.18,NNW,338,0.0,0.0,90,0.00,,---,0.00,VWS V14.00,2013-09-19 14:12:00,
2013-09-19 10:17:00,70.5,67.4,30.18,ENE,68,0.0,0.0,90,0.00,,---,0.00,VWS V14.00,2013-09-19 14:17:00,
2013-09-19 10:22:00,70.8,67.4,30.18,East,90,0.0,0.0,89,0.00,,---,0.00,VWS V14.00,2013-09-19 14:22:00,
2013-09-19 10:27:00,71.4,67.7,30.18,SE,135,0.0,0.0,88,0.00,,---,0.00,VWS V14.00,2013-09-19 14:27:00,
2013-09-19 10:32:00,72.3,68.6,30.19,SSW,202,0.0,0.0,88,0.00,,---,0.00,VWS V14.00,2013-09-19 14:32:00,
2013-09-19 10:37:00,73.0,68.9,30.18,WSW,248,0.0,0.0,87,0.00,,---,0.00,VWS V14.00,2013-09-19 14:37:00,
2013-09-19 10:42:00,73.4,68.6,30.18,NNW,338,0.0,0.0,85,0.00,,---,0.00,VWS V14.00,2013-09-19 14:42:00,
2013-09-19 10:47:00,74.1,69.3,30.18,WSW,248,0.0,0.0,85,0.00,,---,0.00,VWS V14.00,2013-09-19 14:47:00,
2013-09-19 10:52:00,74.1,69.3,30.19,SW,225,0.0,0.0,85,0.00,,---,0.00,VWS V14.00,2013-09-19 14:52:00,
2013-09-19 10:57:00,74.3,69.2,30.19,WSW,248,0.0,0.0,84,0.00,,---,0.00,VWS V14.00,2013-09-19 14:57:00,
2013-09-19 11:02:00,74.4,69.3,30.19,West,270,0.0,0.0,84,0.00,,---,0.00,VWS V14.00,2013-09-19 15:02:00,
2013-09-19 11:07:00,74.1,68.6,30.19,West,270,0.0,0.0,83,0.00,,---,0.00,VWS V14.00,2013-09-19 15:07:00,
2013-09-19 11:12:00,73.9,68.4,30.19,West,270,0.0,0.0,83,0.00,,---,0.00,VWS V14.00,2013-09-19 15:12:00,
2013-09-19 11:17:00,73.9,68.8,30.19,ESE,112,0.0,0.0,84,0.00,,---,0.00,VWS V14.00,2013-09-19 15:17:00,
2013-09-19 11:22:00,74.1,69.0,30.18,WSW,248,0.0,0.0,84,0.00,,---,0.00,VWS V14.00,2013-09-19 15:22:00,
2013-09-19 11:27:00,74.8,69.7,30.18,West,270,0.0,0.0,84,0.00,,---,0.00,VWS V14.00,2013-09-19 15:27:00,
2013-09-19 11:32:00,75.7,70.2,30.18,WSW,248,0.0,0.0,83,0.00,,---,0.00,VWS V14.00,2013-09-19 15:32:00,
2013-09-19 11:37:00,76.2,70.3,30.18,WSW,248,0.0,0.0,82,0.00,,---,0.00,VWS V14.00,2013-09-19 15:37:00,
2013-09-19 11:42:00,76.8,70.5,30.18,ESE,112,0.0,0.0,81,0.00,,---,0.00,VWS V14.00,2013-09-19 15:42:00,
2013-09-19 11:47:00,76.8,69.8,30.18,NE,45,0.0,0.0,79,0.00,,---,0.00,VWS V14.00,2013-09-19 15:47:00,
2013-09-19 11:52:00,76.6,70.0,30.17,SW,225,0.0,0.0,80,0.00,,---,0.00,VWS V14.00,2013-09-19 15:52:00,
2013-09-19 11:57:00,77.1,70.8,30.17,SW,225,0.0,0.0,81,0.00,,---,0.00,VWS V14.00,2013-09-19 15:57:00,
2013-09-19 12:02:00,77.1,69.3,30.17,ENE,68,0.0,4.2,77,0.00,,---,0.00,VWS V14.00,2013-09-19 16:02:00,
2013-09-19 12:08:00,76.8,69.4,30.17,NE,45,1.7,4.2,78,0.00,,---,0.00,VWS V14.00,2013-09-19 16:08:00,
2013-09-19 12:13:00,76.4,69.0,30.17,SW,225,0.4,0.4,78,0.00,,---,0.00,VWS V14.00,2013-09-19 16:13:00,
2013-09-19 12:18:00,77.0,70.0,30.17,ESE,112,0.0,0.4,79,0.00,,---,0.00,VWS V14.00,2013-09-19 16:18:00,
2013-09-19 12:23:00,77.7,70.7,30.17,SSW,202,0.0,0.0,79,0.00,,---,0.00,VWS V14.00,2013-09-19 16:23:00,
2013-09-19 12:28:00,78.4,71.0,30.17,SE,135,0.0,0.0,78,0.00,,---,0.00,VWS V14.00,2013-09-19 16:28:00,
2013-09-19 12:33:00,79.1,71.7,30.17,South,180,0.0,0.0,78,0.00,,---,0.00,VWS V14.00,2013-09-19 16:33:00,
2013-09-19 12:38:00,78.9,70.3,30.17,East,90,0.0,3.3,75,0.00,,---,0.00,VWS V14.00,2013-09-19 16:38:00,
2013-09-19 12:43:00,78.6,70.8,30.17,ENE,68,0.0,0.0,77,0.00,,---,0.00,VWS V14.00,2013-09-19 16:43:00,
2013-09-19 12:48:00,78.9,71.5,30.17,South,180,0.0,0.0,78,0.00,,---,0.00,VWS V14.00,2013-09-19 16:48:00,
2013-09-19 12:53:00,79.7,71.5,30.16,NNE,22,0.0,0.4,76,0.00,,---,0.00,VWS V14.00,2013-09-19 16:53:00,
2013-09-19 12:58:00,80.2,71.6,30.17,NE,45,0.0,0.4,75,0.00,,---,0.00,VWS V14.00,2013-09-19 16:58:00,
2013-09-19 13:03:00,79.7,70.7,30.16,ENE,68,0.0,0.0,74,0.00,,---,0.00,VWS V14.00,2013-09-19 17:03:00,
2013-09-19 13:08:00,79.5,70.9,30.16,WSW,248,0.0,0.0,75,0.00,,---,0.00,VWS V14.00,2013-09-19 17:08:00,
2013-09-19 13:13:00,80.4,72.2,30.16,WSW,248,0.0,0.0,76,0.00,,---,0.00,VWS V14.00,2013-09-19 17:13:00,
2013-09-19 13:18:00,81.1,72.4,30.16,WSW,248,0.0,0.0,75,0.00,,---,0.00,VWS V14.00,2013-09-19 17:18:00,
2013-09-19 13:23:00,81.6,72.5,30.16,WSW,248,0.0,0.0,74,0.00,,---,0.00,VWS V14.00,2013-09-19 17:23:00,
2013-09-19 13:28:00,82.7,73.6,30.16,SSW,202,0.0,0.0,74,0.00,,---,0.00,VWS V14.00,2013-09-19 17:28:00,
2013-09-19 13:33:00,82.9,72.9,30.15,NE,45,2.9,2.9,72,0.00,,---,0.00,VWS V14.00,2013-09-19 17:33:00,
2013-09-19 13:38:00,82.4,72.1,30.15,SE,135,0.0,2.9,71,0.00,,---,0.00,VWS V14.00,2013-09-19 17:38:00,
2013-09-19 13:43:00,82.2,71.9,30.15,ENE,68,0.0,0.0,71,0.00,,---,0.00,VWS V14.00,2013-09-19 17:43:00,
2013-09-19 13:48:00,82.2,71.9,30.15,SW,225,0.0,0.0,71,0.00,,---,0.00,VWS V14.00,2013-09-19 17:48:00,
2013-09-19 13:53:00,82.0,70.8,30.15,East,90,0.0,0.0,69,0.00,,---,0.00,VWS V14.00,2013-09-19 17:53:00,
2013-09-19 13:58:00,81.3,70.2,30.14,ENE,68,0.0,0.0,69,0.00,,---,0.00,VWS V14.00,2013-09-19 17:58:00,
2013-09-19 14:03:00,81.1,70.8,30.14,WSW,248,0.0,0.0,71,0.00,,---,0.00,VWS V14.00,2013-09-19 18:03:00,
2013-09-19 14:08:00,81.3,71.8,30.14,WSW,248,0.2,0.2,73,0.00,,---,0.00,VWS V14.00,2013-09-19 18:08:00,
2013-09-19 14:13:00,82.5,72.6,30.14,WSW,248,0.0,0.0,72,0.00,,---,0.00,VWS V14.00,2013-09-19 18:13:00,
2013-09-19 14:18:00,82.5,72.2,30.14,NNE,22,0.0,0.0,71,0.00,,---,0.00,VWS V14.00,2013-09-19 18:18:00,
2013-09-19 14:23:00,81.5,71.2,30.14,NNW,338,0.0,0.0,71,0.00,,---,0.00,VWS V14.00,2013-09-19 18:23:00,
2013-09-19 14:28:00,80.7,70.4,30.14,NNW,338,0.0,0.0,71,0.00,,---,0.00,VWS V14.00,2013-09-19 18:28:00,
2013-09-19 14:33:00,80.0,70.6,30.13,NNW,338,0.0,0.0,73,0.00,,---,0.00,VWS V14.00,2013-09-19 18:33:00,
2013-09-19 14:38:00,79.5,70.1,30.13,SE,135,0.0,0.0,73,0.00,,---,0.00,VWS V14.00,2013-09-19 18:38:00,
2013-09-19 14:43:00,79.3,69.9,30.13,SSE,158,0.0,0.0,73,0.00,,---,0.00,VWS V14.00,2013-09-19 18:43:00,
2013-09-19 14:48:00,79.5,70.1,30.13,SE,135,0.0,0.0,73,0.00,,---,0.00,VWS V14.00,2013-09-19 18:48:00,
2013-09-19 14:53:00,79.8,70.8,30.13,SE,135,0.0,6.2,74,0.00,,---,0.00,VWS V14.00,2013-09-19 18:53:00,
2013-09-19 14:58:00,79.8,70.8,30.13,SE,135,0.0,6.2,74,0.00,,---,0.00,VWS V14.00,2013-09-19 18:58:00,
2013-09-19 15:03:00,79.1,70.1,30.13,West,270,0.0,0.0,74,0.00,,---,0.00,VWS V14.00,2013-09-19 19:03:00,
2013-09-19 15:08:00,78.6,70.0,30.13,West,270,0.0,0.0,75,0.00,,---,0.00,VWS V14.00,2013-09-19 19:08:00,
2013-09-19 15:13:00,78.0,69.8,30.13,SE,135,0.0,0.0,76,0.00,,---,0.00,VWS V14.00,2013-09-19 19:13:00,
2013-09-19 15:18:00,77.7,69.9,30.13,SE,135,0.0,0.0,77,0.00,,---,0.00,VWS V14.00,2013-09-19 19:18:00,
2013-09-19 15:23:00,77.1,69.7,30.13,SW,225,0.0,0.0,78,0.00,,---,0.00,VWS V14.00,2013-09-19 19:23:00,
2013-09-19 15:29:00,76.8,69.4,30.12,WSW,248,0.0,0.0,78,0.00,,---,0.00,VWS V14.00,2013-09-19 19:29:00,
2013-09-19 15:33:00,76.8,69.8,30.12,WNW,292,0.0,0.0,79,0.00,,---,0.00,VWS V14.00,2013-09-19 19:33:00,
2013-09-19 15:38:00,76.8,70.2,30.12,West,270,0.0,0.0,80,0.00,,---,0.00,VWS V14.00,2013-09-19 19:38:00,
2013-09-19 15:43:00,76.8,70.2,30.12,West,270,0.0,0.0,80,0.00,,---,0.00,VWS V14.00,2013-09-19 19:43:00,
2013-09-19 15:49:00,76.6,70.0,30.12,West,270,0.0,0.0,80,0.00,,---,0.00,VWS V14.00,2013-09-19 19:49:00,
2013-09-19 15:54:00,76.2,69.9,30.12,South,180,0.0,0.0,81,0.00,,---,0.00,VWS V14.00,2013-09-19 19:54:00,
2013-09-19 15:59:00,75.5,69.6,30.12,West,270,0.0,0.0,82,0.00,,---,0.00,VWS V14.00,2013-09-19 19:59:00,
2013-09-19 16:04:00,74.4,68.9,30.12,West,270,0.0,0.0,83,0.04,,---,0.04,VWS V14.00,2013-09-19 20:04:00,
2013-09-19 16:09:00,73.9,69.1,30.12,West,270,0.0,0.0,85,0.06,,---,0.06,VWS V14.00,2013-09-19 20:09:00,
2013-09-19 16:14:00,73.5,69.1,30.12,West,270,0.0,0.0,86,0.06,,---,0.06,VWS V14.00,2013-09-19 20:14:00,
2013-09-19 16:19:00,73.4,69.0,30.12,West,270,0.0,0.0,86,0.06,,---,0.06,VWS V14.00,2013-09-19 20:19:00,
2013-09-19 16:24:00,73.0,69.2,30.12,West,270,0.0,0.0,88,0.06,,---,0.06,VWS V14.00,2013-09-19 20:24:00,
2013-09-19 16:29:00,72.6,69.2,30.12,West,270,0.0,0.0,89,0.06,,---,0.06,VWS V14.00,2013-09-19 20:29:00,
2013-09-19 16:34:00,72.6,69.5,30.12,West,270,0.0,0.0,90,0.06,,---,0.06,VWS V14.00,2013-09-19 20:34:00,
2013-09-19 16:39:00,72.8,69.7,30.12,West,270,0.0,0.0,90,0.06,,---,0.06,VWS V14.00,2013-09-19 20:39:00,
2013-09-19 16:44:00,73.0,69.9,30.12,West,270,0.0,0.0,90,0.06,,---,0.06,VWS V14.00,2013-09-19 20:44:00,
2013-09-19 16:49:00,73.0,69.9,30.12,West,270,0.0,0.0,90,0.06,,---,0.06,VWS V14.00,2013-09-19 20:49:00,
2013-09-19 16:54:00,73.2,70.4,30.12,West,270,0.0,0.0,91,0.06,,---,0.06,VWS V14.00,2013-09-19 20:54:00,
2013-09-19 16:59:00,73.0,70.2,30.12,West,270,0.0,0.0,91,0.06,,---,0.06,VWS V14.00,2013-09-19 20:59:00,
2013-09-19 17:04:00,72.8,70.0,30.12,West,270,0.0,0.0,91,0.02,,---,0.06,VWS V14.00,2013-09-19 21:04:00,
2013-09-19 17:09:00,72.6,70.2,30.13,West,270,0.0,0.0,92,0.02,,---,0.06,VWS V14.00,2013-09-19 21:09:00,
2013-09-19 17:14:00,72.6,70.2,30.13,West,270,0.0,0.0,92,0.00,,---,0.06,VWS V14.00,2013-09-19 21:14:00,
2013-09-19 17:19:00,72.8,70.3,30.12,West,270,0.0,0.0,92,0.00,,---,0.06,VWS V14.00,2013-09-19 21:19:00,
2013-09-19 17:24:00,72.8,70.3,30.12,West,270,0.0,0.0,92,0.00,,---,0.06,VWS V14.00,2013-09-19 21:24:00,
2013-09-19 17:29:00,72.6,70.2,30.12,West,270,0.0,0.0,92,0.00,,---,0.06,VWS V14.00,2013-09-19 21:29:00,
2013-09-19 17:34:00,72.6,70.2,30.12,West,270,0.0,0.0,92,0.00,,---,0.06,VWS V14.00,2013-09-19 21:34:00,
2013-09-19 17:39:00,72.5,70.1,30.12,West,270,0.0,0.0,92,0.00,,---,0.06,VWS V14.00,2013-09-19 21:39:00,
2013-09-19 17:44:00,72.3,69.8,30.11,West,270,0.0,0.0,92,0.00,,---,0.06,VWS V14.00,2013-09-19 21:44:00,
2013-09-19 17:49:00,72.1,70.0,30.11,West,270,0.0,0.0,93,0.00,,---,0.06,VWS V14.00,2013-09-19 21:49:00,
2013-09-19 17:54:00,72.1,70.0,30.11,West,270,0.0,0.0,93,0.00,,---,0.06,VWS V14.00,2013-09-19 21:54:00,
2013-09-19 17:59:00,72.1,70.0,30.11,West,270,0.0,0.0,93,0.00,,---,0.06,VWS V14.00,2013-09-19 21:59:00,
2013-09-19 18:04:00,71.9,69.8,30.12,West,270,0.0,0.0,93,0.00,,---,0.06,VWS V14.00,2013-09-19 22:04:00,
2013-09-19 18:09:00,72.1,70.3,30.12,West,270,0.0,0.0,94,0.00,,---,0.06,VWS V14.00,2013-09-19 22:09:00,
2013-09-19 18:14:00,72.1,70.3,30.12,West,270,0.0,0.0,94,0.00,,---,0.06,VWS V14.00,2013-09-19 22:14:00,
2013-09-19 18:19:00,71.9,70.1,30.11,West,270,0.0,0.0,94,0.00,,---,0.06,VWS V14.00,2013-09-19 22:19:00,
2013-09-19 18:24:00,72.1,70.3,30.12,West,270,0.0,0.0,94,0.00,,---,0.06,VWS V14.00,2013-09-19 22:24:00,
2013-09-19 18:29:00,71.7,69.9,30.12,West,270,0.0,0.0,94,0.00,,---,0.06,VWS V14.00,2013-09-19 22:29:00,
2013-09-19 18:34:00,71.7,69.9,30.12,West,270,0.0,0.0,94,0.00,,---,0.06,VWS V14.00,2013-09-19 22:34:00,
2013-09-19 18:39:00,71.4,69.6,30.12,West,270,0.0,0.0,94,0.00,,---,0.06,VWS V14.00,2013-09-19 22:39:00,
2013-09-19 18:44:00,71.2,69.4,30.12,West,270,0.0,0.0,94,0.00,,---,0.06,VWS V14.00,2013-09-19 22:44:00,
2013-09-19 18:49:00,70.8,69.0,30.12,West,270,0.0,0.0,94,0.00,,---,0.06,VWS V14.00,2013-09-19 22:49:00,
2013-09-19 18:54:00,70.5,68.7,30.12,West,270,0.0,0.0,94,0.00,,---,0.06,VWS V14.00,2013-09-19 22:54:00,
2013-09-19 18:59:00,69.9,68.4,30.12,West,270,0.0,0.0,95,0.00,,---,0.06,VWS V14.00,2013-09-19 22:59:00,
2013-09-19 19:04:00,69.6,68.1,30.11,West,270,0.0,0.0,95,0.00,,---,0.06,VWS V14.00,2013-09-19 23:04:00,
2013-09-19 19:09:00,69.6,68.1,30.11,West,270,0.0,0.0,95,0.00,,---,0.06,VWS V14.00,2013-09-19 23:09:00,
2013-09-19 19:14:00,69.0,67.5,30.11,West,270,0.0,0.0,95,0.00,,---,0.06,VWS V14.00,2013-09-19 23:14:00,
2013-09-19 19:19:00,68.7,67.2,30.11,West,270,0.0,0.0,95,0.00,,---,0.06,VWS V14.00,2013-09-19 23:19:00,
2013-09-19 19:24:00,68.5,67.0,30.11,West,270,0.0,0.0,95,0.00,,---,0.06,VWS V14.00,2013-09-19 23:24:00,
2013-09-19 19:29:00,68.3,67.1,30.12,West,270,0.0,0.0,96,0.00,,---,0.06,VWS V14.00,2013-09-19 23:29:00,
2013-09-19 19:34:00,68.1,66.9,30.12,West,270,0.0,0.0,96,0.00,,---,0.06,VWS V14.00,2013-09-19 23:34:00,
2013-09-19 19:39:00,67.8,66.6,30.11,West,270,0.0,0.0,96,0.00,,---,0.06,VWS V14.00,2013-09-19 23:39:00,
2013-09-19 19:44:00,67.4,66.2,30.11,West,270,0.0,0.0,96,0.00,,---,0.06,VWS V14.00,2013-09-19 23:44:00,
2013-09-19 19:49:00,67.2,66.0,30.11,West,270,0.0,0.0,96,0.00,,---,0.06,VWS V14.00,2013-09-19 23:49:00,
2013-09-19 19:54:00,67.1,66.2,30.11,West,270,0.0,0.0,97,0.00,,---,0.06,VWS V14.00,2013-09-19 23:54:00,
2013-09-19 20:00:00,66.7,65.8,30.11,West,270,0.0,0.0,97,0.00,,---,0.06,VWS V14.00,2013-09-20 00:00:00,
2013-09-19 20:05:00,66.7,65.8,30.11,West,270,0.0,0.0,97,0.00,,---,0.06,VWS V14.00,2013-09-20 00:05:00,
2013-09-19 20:10:00,66.3,65.4,30.11,West,270,0.0,0.0,97,0.00,,---,0.06,VWS V14.00,2013-09-20 00:10:00,
2013-09-19 20:15:00,66.2,65.3,30.11,West,270,0.0,0.0,97,0.00,,---,0.06,VWS V14.00,2013-09-20 00:15:00,
2013-09-19 20:20:00,66.0,65.1,30.10,West,270,0.0,0.0,97,0.00,,---,0.06,VWS V14.00,2013-09-20 00:20:00,
2013-09-19 20:25:00,65.8,64.9,30.11,West,270,0.0,0.0,97,0.00,,---,0.06,VWS V14.00,2013-09-20 00:25:00,
2013-09-19 20:30:00,65.6,64.7,30.11,West,270,0.0,0.0,97,0.00,,---,0.06,VWS V14.00,2013-09-20 00:30:00,
2013-09-19 20:35:00,65.4,64.5,30.11,West,270,0.0,0.0,97,0.00,,---,0.06,VWS V14.00,2013-09-20 00:35:00,
2013-09-19 20:40:00,65.3,64.7,30.11,West,270,0.0,0.0,98,0.00,,---,0.06,VWS V14.00,2013-09-20 00:40:00,
2013-09-19 20:45:00,65.1,64.5,30.11,West,270,0.0,0.0,98,0.00,,---,0.06,VWS V14.00,2013-09-20 00:45:00,
2013-09-19 20:50:00,64.9,64.3,30.12,West,270,0.0,0.0,98,0.00,,---,0.06,VWS V14.00,2013-09-20 00:50:00,
2013-09-19 20:55:00,64.7,64.1,30.12,West,270,0.0,0.0,98,0.00,,---,0.06,VWS V14.00,2013-09-20 00:55:00,
2013-09-19 21:00:00,64.5,63.9,30.12,West,270,0.0,0.0,98,0.00,,---,0.06,VWS V14.00,2013-09-20 01:00:00,
2013-09-19 21:05:00,64.5,63.9,30.12,West,270,0.0,0.0,98,0.00,,---,0.06,VWS V14.00,2013-09-20 01:05:00,
2013-09-19 21:10:00,64.2,63.9,30.12,West,270,0.0,0.0,99,0.00,,---,0.06,VWS V14.00,2013-09-20 01:10:00,
2013-09-19 21:15:00,64.2,63.9,30.12,West,270,0.0,0.0,99,0.00,,---,0.06,VWS V14.00,2013-09-20 01:15:00,
2013-09-19 21:20:00,64.2,63.9,30.12,West,270,0.0,0.0,99,0.00,,---,0.06,VWS V14.00,2013-09-20 01:20:00,
2013-09-19 21:25:00,64.0,63.7,30.12,West,270,0.0,0.0,99,0.00,,---,0.06,VWS V14.00,2013-09-20 01:25:00,
2013-09-19 21:30:00,63.8,63.5,30.12,West,270,0.0,0.0,99,0.00,,---,0.06,VWS V14.00,2013-09-20 01:30:00,
2013-09-19 21:35:00,63.6,63.3,30.12,West,270,0.0,0.0,99,0.00,,---,0.06,VWS V14.00,2013-09-20 01:35:00,
2013-09-19 21:40:00,63.5,63.2,30.12,West,270,0.0,0.0,99,0.00,,---,0.06,VWS V14.00,2013-09-20 01:40:00,
2013-09-19 21:45:00,63.5,63.2,30.12,West,270,0.0,0.0,99,0.00,,---,0.06,VWS V14.00,2013-09-20 01:45:00,
2013-09-19 21:50:00,63.3,63.0,30.12,West,270,0.0,0.0,99,0.00,,---,0.06,VWS V14.00,2013-09-20 01:50:00,
2013-09-19 21:55:00,63.3,63.0,30.12,West,270,0.0,0.0,99,0.00,,---,0.06,VWS V14.00,2013-09-20 01:55:00,
2013-09-19 22:00:00,63.3,63.0,30.11,West,270,0.0,0.0,99,0.00,,---,0.06,VWS V14.00,2013-09-20 02:00:00,
2013-09-19 22:05:00,63.1,62.8,30.12,West,270,0.0,0.0,99,0.00,,---,0.06,VWS V14.00,2013-09-20 02:05:00,
2013-09-19 22:10:00,63.1,63.1,30.12,West,270,0.0,0.0,100,0.00,,---,0.06,VWS V14.00,2013-09-20 02:10:00,
2013-09-19 22:15:00,63.1,63.1,30.12,West,270,0.0,0.0,100,0.00,,---,0.06,VWS V14.00,2013-09-20 02:15:00,
2013-09-19 22:20:00,63.3,63.3,30.12,West,270,0.0,0.0,100,0.00,,---,0.06,VWS V14.00,2013-09-20 02:20:00,
2013-09-19 22:25:00,63.3,63.3,30.11,West,270,0.0,0.0,100,0.00,,---,0.06,VWS V14.00,2013-09-20 02:25:00,
2013-09-19 22:30:00,63.3,63.3,30.12,West,270,0.0,0.0,100,0.00,,---,0.06,VWS V14.00,2013-09-20 02:30:00,
2013-09-19 22:35:00,63.3,63.3,30.12,West,270,0.0,0.0,100,0.00,,---,0.06,VWS V14.00,2013-09-20 02:35:00,
2013-09-19 22:40:00,63.3,63.3,30.12,West,270,0.0,0.0,100,0.00,,---,0.06,VWS V14.00,2013-09-20 02:40:00,
2013-09-19 22:45:00,63.1,63.1,30.11,West,270,0.0,0.0,100,0.00,,---,0.06,VWS V14.00,2013-09-20 02:45:00,
2013-09-19 22:51:00,63.1,63.1,30.12,West,270,0.0,0.0,100,0.00,,---,0.06,VWS V14.00,2013-09-20 02:51:00,
2013-09-19 22:56:00,62.9,62.9,30.12,West,270,0.0,0.0,100,0.00,,---,0.06,VWS V14.00,2013-09-20 02:56:00,
2013-09-19 23:01:00,62.7,62.7,30.12,West,270,0.0,0.0,100,0.00,,---,0.06,VWS V14.00,2013-09-20 03:01:00,
2013-09-19 23:06:00,62.7,62.7,30.12,West,270,0.0,0.0,100,0.00,,---,0.06,VWS V14.00,2013-09-20 03:06:00,
2013-09-19 23:11:00,62.6,62.6,30.12,West,270,0.0,0.0,100,0.00,,---,0.06,VWS V14.00,2013-09-20 03:11:00,
2013-09-19 23:16:00,62.6,62.6,30.12,West,270,0.0,0.0,100,0.00,,---,0.06,VWS V14.00,2013-09-20 03:16:00,
2013-09-19 23:21:00,62.4,62.4,30.12,West,270,0.0,0.0,100,0.00,,---,0.06,VWS V14.00,2013-09-20 03:21:00,
2013-09-19 23:26:00,62.4,62.4,30.12,West,270,0.0,0.0,100,0.00,,---,0.06,VWS V14.00,2013-09-20 03:26:00,
2013-09-19 23:31:00,62.4,62.4,30.12,West,270,0.0,0.0,100,0.00,,---,0.06,VWS V14.00,2013-09-20 03:31:00,
2013-09-19 23:36:00,62.4,62.4,30.12,West,270,0.0,0.0,100,0.00,,---,0.06,VWS V14.00,2013-09-20 03:36:00,
2013-09-19 23:41:00,62.4,62.4,30.12,West,270,0.0,0.0,100,0.00,,---,0.06,VWS V14.00,2013-09-20 03:41:00,
2013-09-19 23:46:00,62.4,62.4,30.12,West,270,0.0,0.0,100,0.00,,---,0.06,VWS V14.00,2013-09-20 03:46:00,
2013-09-19 23:51:00,62.2,62.2,30.12,West,270,0.0,0.0,100,0.00,,---,0.06,VWS V14.00,2013-09-20 03:51:00,
2013-09-19 23:56:00,62.2,62.2,30.12,West,270,0.0,0.0,100,0.00,,---,0.06,VWS V14.00,2013-09-20 03:56:00,